North Houston, Texas
Current Conditions -  °F | °C
As of 8:53 PM on Wednesday 22 Oct 2014 (Local Time) from KDWH Reporting Station
Clear Clear  
Wind Chill: 64°   Ceiling: Unl
Heat Index: 64°   Visibility: 9mi
Dew Point: 59°   Wind: 0mph
Humidity: 84%   Direction: NA
Pressure: 30.09"   Gusts: NA
Location:  29.93°N, 95.52°W
Report Text: KDWH 230153Z 00000KT 9SM CLR 18/15 A3009 RMK AO2 SLP187 T01780150
Loading
Personal Weather Stations






























Interactive Weather Map
Tropical Storm Tracking
New forecast layout! Learn more

10-Day Weather Forecast

Advertisements
Track Severe Weather on mobile